Time;durP1;ratioP1;P1;durP2;ratioP2;P2;SDS_P1;SDS_P2;PMS_P1;PMS_P2;Temp;Humidity;BMP_temperature;BMP_pressure;BME280_temperature;BME280_humidity;BME280_pressure;Samples;Min_cycle;Max_cycle;Signal;HPM_P1;HPM_P2
2022/06/29 00:00:28;;;;;;;14.60;8.65;;;12.20;99.90;;;;;;5040976;28;20108;-74
2022/06/29 00:03:04;;;;;;;9.73;6.40;;;12.20;99.90;;;;;;5036907;28;20017;-75
2022/06/29 00:05:31;;;;;;;10.07;7.65;;;12.30;99.90;;;;;;5040544;28;20077;-76
2022/06/29 00:07:58;;;;;;;9.02;6.82;;;12.40;99.90;;;;;;5038449;28;20029;-77
2022/06/29 00:10:26;;;;;;;10.55;6.63;;;12.50;99.90;;;;;;5039429;28;20036;-77
2022/06/29 00:12:54;;;;;;;10.65;5.95;;;12.50;99.90;;;;;;5040310;28;20014;-78
2022/06/29 00:15:21;;;;;;;5.55;4.60;;;12.60;99.90;;;;;;5036268;28;20037;-81
2022/06/29 00:17:49;;;;;;;13.50;5.95;;;12.70;99.90;;;;;;5034193;28;20028;-72
2022/06/29 00:20:17;;;;;;;14.35;5.97;;;12.70;99.90;;;;;;5032793;28;20076;-77
2022/06/29 00:22:45;;;;;;;8.95;6.03;;;12.80;99.90;;;;;;5033844;28;20025;-76
2022/06/29 00:25:15;;;;;;;11.30;5.93;;;12.80;99.90;;;;;;5049027;28;20382;-80
2022/06/29 00:27:44;;;;;;;11.85;5.57;;;12.90;99.90;;;;;;5032085;28;20104;-79
2022/06/29 00:30:12;;;;;;;10.75;5.85;;;12.90;99.90;;;;;;5033188;28;20028;-77
2022/06/29 00:32:40;;;;;;;10.88;6.28;;;12.90;99.90;;;;;;5032665;28;20036;-76
2022/06/29 00:35:08;;;;;;;12.15;6.82;;;13.00;99.90;;;;;;5032583;28;20112;-79
2022/06/29 00:37:36;;;;;;;11.30;6.80;;;13.10;99.90;;;;;;5032194;28;20025;-76
2022/06/29 00:40:05;;;;;;;11.85;7.95;;;13.10;99.90;;;;;;5032842;28;20025;-80
2022/06/29 00:42:33;;;;;;;15.85;9.23;;;13.10;99.90;;;;;;5033065;28;20026;-77
2022/06/29 00:45:00;;;;;;;12.10;7.55;;;13.20;99.90;;;;;;5033294;28;20084;-75
2022/06/29 00:47:28;;;;;;;12.73;6.93;;;13.30;99.90;;;;;;5033198;28;20025;-76
2022/06/29 00:49:55;;;;;;;9.07;5.78;;;13.30;99.90;;;;;;5033133;28;20445;-75
2022/06/29 00:52:29;;;;;;;11.65;6.68;;;13.50;99.90;;;;;;5033279;28;20025;-72
2022/06/29 00:55:06;;;;;;;9.57;6.43;;;13.60;99.90;;;;;;5032763;28;20494;-75
2022/06/29 00:57:42;;;;;;;8.07;5.55;;;13.70;99.90;;;;;;5032551;28;20049;-79
2022/06/29 01:00:10;;;;;;;12.77;7.20;;;13.90;99.90;;;;;;5032524;28;20021;-80
2022/06/29 01:02:37;;;;;;;13.80;6.18;;;14.00;99.90;;;;;;5032352;28;20105;-77
2022/06/29 01:05:06;;;;;;;14.13;5.22;;;14.10;99.90;;;;;;5032479;28;20440;-75
2022/06/29 01:07:34;;;;;;;6.95;4.68;;;14.20;99.90;;;;;;5032494;28;20021;-75
2022/06/29 01:10:06;;;;;;;;;;;14.30;99.90;;;;;;5032580;28;20036;-73
2022/06/29 01:12:33;;;;;;;8.75;4.47;;;14.40;99.90;;;;;;5032323;28;19908;-77
2022/06/29 01:15:00;;;;;;;6.38;3.85;;;14.40;99.90;;;;;;5032193;28;20486;-74
2022/06/29 01:17:27;;;;;;;7.75;3.13;;;14.50;99.90;;;;;;5032237;28;20049;-71
2022/06/29 01:19:55;;;;;;;5.15;2.47;;;14.60;99.90;;;;;;5031407;28;20462;-75
2022/06/29 01:22:26;;;;;;;4.97;1.90;;;14.70;99.90;;;;;;5032869;28;20045;-75
2022/06/29 01:24:54;;;;;;;7.15;2.65;;;14.70;99.90;;;;;;5032455;28;20021;-78
2022/06/29 01:27:23;;;;;;;7.60;3.70;;;14.90;99.90;;;;;;5032965;28;20096;-77
2022/06/29 01:29:50;;;;;;;9.77;3.03;;;15.10;99.90;;;;;;5030360;28;20029;-74
2022/06/29 01:32:18;;;;;;;8.27;3.53;;;15.20;99.90;;;;;;5032343;28;20018;-75
2022/06/29 01:34:45;;;;;;;4.88;2.55;;;15.20;99.90;;;;;;5031935;28;20047;-77
2022/06/29 01:37:13;;;;;;;5.20;2.40;;;15.30;99.90;;;;;;5033251;28;20021;-80
2022/06/29 01:39:41;;;;;;;5.40;1.92;;;15.50;99.90;;;;;;5032421;28;20478;-76
2022/06/29 01:42:09;;;;;;;5.75;1.50;;;15.60;99.90;;;;;;5047580;28;20052;-74
2022/06/29 01:44:38;;;;;;;6.00;1.98;;;15.70;99.90;;;;;;5031738;28;20432;-74
2022/06/29 01:47:05;;;;;;;4.18;1.65;;;15.80;99.90;;;;;;5031712;28;20026;-75
2022/06/29 01:49:33;;;;;;;4.13;1.88;;;15.80;99.90;;;;;;5031704;28;20462;-80
2022/06/29 01:52:02;;;;;;;6.20;1.48;;;16.00;99.90;;;;;;5031769;28;20544;-78
2022/06/29 01:54:29;;;;;;;5.82;1.63;;;16.00;99.30;;;;;;5032451;28;20034;-77
2022/06/29 01:56:57;;;;;;;3.72;1.50;;;16.10;99.50;;;;;;5031961;28;20048;-72
2022/06/29 01:59:24;;;;;;;5.53;1.60;;;16.30;99.40;;;;;;5033039;28;20029;-75
2022/06/29 02:01:51;;;;;;;5.63;2.25;;;16.40;99.00;;;;;;5032191;28;20116;-74
2022/06/29 02:04:18;;;;;;;3.63;1.85;;;16.70;98.60;;;;;;5032505;28;20090;-76
2022/06/29 02:06:53;;;;;;;4.43;1.30;;;16.80;98.40;;;;;;5031949;28;20075;-73
2022/06/29 02:09:21;;;;;;;3.05;1.30;;;16.90;98.60;;;;;;5047471;28;20052;-77
2022/06/29 02:11:49;;;;;;;3.53;1.15;;;17.10;98.10;;;;;;5047085;28;20021;-74
2022/06/29 02:14:19;;;;;;;3.05;1.35;;;17.20;97.80;;;;;;5032045;28;20030;-75
2022/06/29 02:16:46;;;;;;;3.45;1.00;;;17.30;97.20;;;;;;5047378;28;20065;-80
2022/06/29 02:19:14;;;;;;;5.63;1.23;;;17.50;96.80;;;;;;5062742;28;20022;-78
2022/06/29 02:21:41;;;;;;;5.72;1.10;;;17.60;96.70;;;;;;5031320;28;20036;-75
2022/06/29 02:24:09;;;;;;;5.53;1.20;;;17.70;96.00;;;;;;5031678;28;20026;-77
2022/06/29 02:26:36;;;;;;;6.45;1.38;;;17.80;96.00;;;;;;5035469;28;20083;-78
2022/06/29 02:29:03;;;;;;;3.33;1.08;;;17.80;95.70;;;;;;5039884;28;20057;-76
2022/06/29 02:37:01;;;;;;;3.00;1.00;;;18.10;95.00;;;;;;5035842;28;20032;-74
2022/06/29 02:39:28;;;;;;;4.35;1.73;;;18.30;94.10;;;;;;5053017;28;20021;-76
2022/06/29 02:41:55;;;;;;;5.45;1.20;;;18.30;93.30;;;;;;5037552;28;20022;-74
2022/06/29 02:44:23;;;;;;;5.05;1.10;;;18.40;92.90;;;;;;5036047;28;20030;-74
2022/06/29 02:46:50;;;;;;;4.97;1.50;;;18.30;92.60;;;;;;5034429;28;20022;-75
2022/06/29 02:49:17;;;;;;;3.15;1.13;;;18.50;92.90;;;;;;5034553;28;20032;-75
2022/06/29 02:51:45;;;;;;;4.30;0.98;;;18.60;92.30;;;;;;5035869;28;20060;-74
2022/06/29 02:54:12;;;;;;;3.95;1.23;;;18.90;91.90;;;;;;5034416;28;20477;-76
2022/06/29 02:56:39;;;;;;;4.35;1.00;;;18.90;91.60;;;;;;5034837;28;20532;-79
2022/06/29 02:59:07;;;;;;;7.63;1.02;;;18.90;91.50;;;;;;5035191;28;20079;-75
2022/06/29 03:01:35;;;;;;;2.55;0.75;;;19.00;91.10;;;;;;5035727;28;20018;-75
2022/06/29 03:04:02;;;;;;;4.53;0.65;;;19.10;91.20;;;;;;5035427;28;20029;-75
2022/06/29 03:06:30;;;;;;;4.43;0.70;;;19.10;91.00;;;;;;5034221;28;20033;-78
2022/06/29 03:08:57;;;;;;;4.53;0.70;;;19.10;90.50;;;;;;5034134;28;20034;-76
2022/06/29 03:11:25;;;;;;;2.33;1.15;;;19.00;90.70;;;;;;5034333;28;20033;-74
2022/06/29 03:13:52;;;;;;;4.82;1.00;;;19.00;90.60;;;;;;5034150;28;20026;-76
2022/06/29 03:16:20;;;;;;;2.17;0.65;;;18.90;90.50;;;;;;5034491;28;20065;-73
2022/06/29 03:18:47;;;;;;;2.67;0.80;;;18.90;90.70;;;;;;5034024;28;20078;-75
2022/06/29 03:21:14;;;;;;;3.38;0.70;;;18.90;90.50;;;;;;5033315;28;20032;-76
2022/06/29 03:23:42;;;;;;;2.60;0.85;;;19.00;90.90;;;;;;5033338;28;20026;-74
2022/06/29 03:26:10;;;;;;;6.20;1.17;;;19.10;90.50;;;;;;5048907;28;20072;-74
2022/06/29 03:28:38;;;;;;;1.85;0.80;;;19.20;90.40;;;;;;5033617;28;20608;-76
2022/06/29 03:31:06;;;;;;;3.58;1.00;;;19.10;90.30;;;;;;5033899;28;20063;-73
2022/06/29 03:33:33;;;;;;;2.40;0.90;;;19.10;90.20;;;;;;5033831;28;20021;-73
2022/06/29 03:36:00;;;;;;;4.10;0.82;;;19.00;90.40;;;;;;5033390;28;20033;-74
2022/06/29 03:38:27;;;;;;;5.03;0.95;;;18.90;90.90;;;;;;5033700;28;20018;-76
2022/06/29 03:40:55;;;;;;;7.82;1.80;;;18.80;90.40;;;;;;5033324;28;20091;-73
2022/06/29 03:43:22;;;;;;;5.28;1.20;;;18.60;90.70;;;;;;5032467;28;20025;-74
2022/06/29 03:45:49;;;;;;;2.00;0.90;;;18.40;91.20;;;;;;5033891;28;20463;-71
2022/06/29 03:48:17;;;;;;;1.60;1.08;;;18.20;91.10;;;;;;5033711;28;20022;-74
2022/06/29 03:50:44;;;;;;;3.17;0.90;;;18.00;91.40;;;;;;5033233;28;20014;-73
2022/06/29 03:53:12;;;;;;;3.22;0.70;;;17.90;91.50;;;;;;5033490;28;20075;-74
2022/06/29 03:55:39;;;;;;;5.03;1.00;;;17.80;92.20;;;;;;5031825;28;20304;-74
2022/06/29 03:58:06;;;;;;;2.60;1.05;;;17.80;92.50;;;;;;5033242;28;20064;-74
2022/06/29 04:00:34;;;;;;;4.60;1.60;;;17.80;92.70;;;;;;5033197;28;20108;-74
2022/06/29 04:03:01;;;;;;;3.67;1.20;;;17.90;92.90;;;;;;5033457;28;20220;-72
2022/06/29 04:05:28;;;;;;;2.85;1.00;;;17.90;92.40;;;;;;5033309;28;20017;-74
2022/06/29 04:07:56;;;;;;;4.05;1.15;;;17.90;92.40;;;;;;5033031;28;20017;-74
2022/06/29 04:10:23;;;;;;;5.97;1.33;;;18.10;92.30;;;;;;5032836;28;20025;-74
2022/06/29 04:12:50;;;;;;;4.60;1.20;;;18.20;92.10;;;;;;5032634;28;20104;-74
2022/06/29 04:15:18;;;;;;;1.98;0.90;;;18.20;92.00;;;;;;5032924;28;20038;-72
2022/06/29 04:17:45;;;;;;;6.80;1.40;;;18.20;92.00;;;;;;5034067;28;20025;-74
2022/06/29 04:23:01;;;;;;;3.45;1.98;;;18.10;92.60;;;;;;5033073;28;20056;-74
2022/06/29 04:25:32;;;;;;;4.25;0.80;;;18.10;92.10;;;;;;5034601;28;20025;-75
2022/06/29 04:28:01;;;;;;;2.42;0.80;;;18.00;91.80;;;;;;5031974;28;20060;-72
2022/06/29 04:30:28;;;;;;;3.95;1.38;;;18.00;92.00;;;;;;5029874;28;20035;-74
2022/06/29 04:32:55;;;;;;;4.75;1.00;;;17.80;92.30;;;;;;5032578;28;20478;-75
2022/06/29 04:35:23;;;;;;;2.20;0.80;;;17.80;92.60;;;;;;5032446;28;20048;-73
2022/06/29 04:37:50;;;;;;;6.45;1.10;;;17.70;92.20;;;;;;5032909;28;20458;-73
2022/06/29 04:40:17;;;;;;;9.05;1.33;;;17.70;92.60;;;;;;5033471;28;20544;-72
2022/06/29 04:42:45;;;;;;;3.40;0.88;;;17.80;92.80;;;;;;5032670;28;20021;-77
2022/06/29 04:46:19;;;;;;;5.45;1.30;;;17.70;92.80;;;;;;5032704;28;20060;-70
2022/06/29 04:48:03;;;;;;;2.33;0.73;;;17.70;92.50;;;;;;5031902;28;20041;-69
2022/06/29 04:50:30;;;;;;;3.30;0.70;;;17.80;92.50;;;;;;5031931;28;20033;-71
2022/06/29 04:52:58;;;;;;;1.52;0.98;;;17.80;92.70;;;;;;5031422;28;20025;-74
2022/06/29 04:55:28;;;;;;;4.40;0.70;;;17.90;92.60;;;;;;5031764;28;20037;-72
2022/06/29 04:57:55;;;;;;;3.90;0.82;;;17.80;92.20;;;;;;5032255;28;20037;-70
2022/06/29 05:00:24;;;;;;;3.25;0.98;;;17.70;92.60;;;;;;5031989;28;20047;-71
2022/06/29 05:02:52;;;;;;;2.90;1.02;;;17.60;92.80;;;;;;5031973;28;20014;-72
2022/06/29 05:05:19;;;;;;;5.10;0.82;;;17.50;93.00;;;;;;5032013;28;20493;-71
2022/06/29 05:07:47;;;;;;;3.08;1.17;;;17.60;93.20;;;;;;5031808;28;20037;-77
2022/06/29 05:10:15;;;;;;;2.00;0.65;;;17.60;93.00;;;;;;5032163;28;20022;-73
2022/06/29 05:12:43;;;;;;;3.53;0.70;;;17.50;93.20;;;;;;5031440;28;20029;-72
2022/06/29 05:15:11;;;;;;;3.58;1.92;;;17.40;93.20;;;;;;5032536;28;20029;-74
2022/06/29 05:17:39;;;;;;;6.40;0.80;;;17.40;93.40;;;;;;5047426;28;20470;-73
2022/06/29 05:20:11;;;;;;;25.05;1.58;;;17.30;93.50;;;;;;5032300;28;20037;-72
2022/06/29 05:22:39;;;;;;;11.75;1.48;;;17.20;94.20;;;;;;5063558;28;20032;-72
2022/06/29 05:25:10;;;;;;;9.00;1.17;;;17.20;94.30;;;;;;5030958;28;20029;-76
2022/06/29 05:27:37;;;;;;;5.00;1.02;;;17.00;94.20;;;;;;5045657;28;20049;-72
2022/06/29 05:30:06;;;;;;;3.70;0.93;;;17.00;94.30;;;;;;5029526;28;20060;-74
2022/06/29 05:32:35;;;;;;;6.55;1.30;;;16.90;94.40;;;;;;5029862;28;20026;-75
2022/06/29 05:35:03;;;;;;;2.97;1.25;;;16.80;94.50;;;;;;5030102;28;20041;-77
2022/06/29 05:37:30;;;;;;;2.97;0.88;;;16.70;94.10;;;;;;5030463;28;20029;-74
2022/06/29 05:39:57;;;;;;;2.30;0.70;;;16.70;94.50;;;;;;5030365;28;20055;-76
2022/06/29 05:42:25;;;;;;;7.03;5.20;;;16.70;94.50;;;;;;5030009;28;20021;-73
2022/06/29 05:44:52;;;;;;;3.08;1.52;;;16.60;94.60;;;;;;5031552;28;20548;-74
2022/06/29 05:47:19;;;;;;;5.43;0.90;;;16.50;94.70;;;;;;5031557;28;20029;-74
2022/06/29 05:49:47;;;;;;;2.03;1.00;;;16.50;94.90;;;;;;5031463;28;20100;-78
2022/06/29 05:52:14;;;;;;;14.82;9.27;;;16.40;95.00;;;;;;5030912;28;20067;-73
2022/06/29 05:54:41;;;;;;;4.97;1.48;;;16.30;95.20;;;;;;5031160;28;20026;-74
2022/06/29 05:57:09;;;;;;;2.50;0.90;;;16.30;95.50;;;;;;5046428;28;20490;-73
2022/06/29 05:59:36;;;;;;;5.55;1.27;;;16.20;95.60;;;;;;5048059;28;20120;-73
2022/06/29 06:02:04;;;;;;;3.28;0.90;;;16.10;95.50;;;;;;5035428;28;20055;-74
2022/06/29 06:04:31;;;;;;;4.93;1.48;;;16.10;95.70;;;;;;5034593;28;20021;-82
2022/06/29 06:06:58;;;;;;;3.08;0.77;;;16.00;95.90;;;;;;5035435;28;20025;-72
2022/06/29 06:09:27;;;;;;;2.50;0.85;;;16.00;95.80;;;;;;5035386;28;20466;-79
2022/06/29 06:11:55;;;;;;;3.05;0.80;;;16.00;96.20;;;;;;5034669;28;20033;-72
2022/06/29 06:14:23;;;;;;;2.03;0.90;;;15.90;96.30;;;;;;5046975;28;20128;-74
2022/06/29 06:16:51;;;;;;;2.80;1.10;;;15.90;96.20;;;;;;5049286;28;20495;-74
2022/06/29 06:19:18;;;;;;;5.40;1.10;;;15.90;96.30;;;;;;5034588;28;20067;-76
2022/06/29 06:21:45;;;;;;;4.78;1.08;;;15.80;96.40;;;;;;5035032;28;20480;-76
2022/06/29 06:24:13;;;;;;;2.28;1.20;;;15.80;96.60;;;;;;5035075;28;20025;-75
2022/06/29 06:26:41;;;;;;;4.20;1.27;;;15.80;96.80;;;;;;5034578;28;20033;-74
2022/06/29 06:29:08;;;;;;;2.70;1.08;;;15.80;96.80;;;;;;5047170;28;20031;-72
2022/06/29 06:31:36;;;;;;;2.25;1.10;;;15.70;97.00;;;;;;5034615;28;20107;-75
2022/06/29 06:34:03;;;;;;;1.83;0.95;;;15.70;97.20;;;;;;5033631;28;20025;-76
2022/06/29 06:36:31;;;;;;;1.40;0.90;;;15.70;97.60;;;;;;5022037;28;20036;-79
2022/06/29 06:38:58;;;;;;;3.42;1.15;;;15.60;97.20;;;;;;5042545;28;20305;-81
2022/06/29 06:41:25;;;;;;;2.78;1.15;;;15.60;97.10;;;;;;5028309;28;20065;-83
2022/06/29 06:43:55;;;;;;;4.82;1.55;;;15.60;97.20;;;;;;5031332;28;20067;-74
2022/06/29 06:46:23;;;;;;;1.50;0.90;;;15.50;97.20;;;;;;5034527;28;20030;-81
2022/06/29 06:48:52;;;;;;;3.95;1.50;;;15.50;97.20;;;;;;5042052;28;20377;-75
2022/06/29 06:51:23;;;;;;;2.85;1.08;;;15.40;97.50;;;;;;5052571;28;20025;-74
2022/06/29 06:53:51;;;;;;;4.95;1.33;;;15.40;97.70;;;;;;5033940;28;20080;-73
2022/06/29 06:56:19;;;;;;;4.18;1.20;;;15.40;97.70;;;;;;5034030;28;20052;-77
2022/06/29 06:58:49;;;;;;;4.15;1.20;;;15.30;97.90;;;;;;5033043;28;20493;-78
2022/06/29 07:01:16;;;;;;;3.45;1.10;;;15.20;98.10;;;;;;5059682;28;20029;-77
2022/06/29 07:03:44;;;;;;;2.00;1.00;;;15.20;98.10;;;;;;5050719;28;20028;-77
2022/06/29 07:06:12;;;;;;;7.28;1.50;;;15.10;98.30;;;;;;5045638;28;20025;-75
2022/06/29 07:08:40;;;;;;;5.03;1.98;;;15.10;98.70;;;;;;5051829;28;20116;-73
2022/06/29 07:11:08;;;;;;;5.50;2.03;;;15.00;99.10;;;;;;5032926;28;20017;-75
2022/06/29 07:13:36;;;;;;;7.47;1.33;;;14.90;99.40;;;;;;5032583;28;20151;-79
2022/06/29 07:16:05;;;;;;;4.43;1.75;;;14.90;99.50;;;;;;5051015;28;20079;-77
2022/06/29 07:18:33;;;;;;;3.00;1.20;;;14.70;99.70;;;;;;5055267;28;20116;-76
2022/06/29 07:21:01;;;;;;;5.00;1.50;;;14.60;99.80;;;;;;5035271;28;20025;-79
2022/06/29 07:23:29;;;;;;;6.47;1.83;;;14.50;99.90;;;;;;5033256;28;20113;-79
2022/06/29 07:25:59;;;;;;;7.07;1.75;;;14.50;99.90;;;;;;5032530;28;20040;-78
2022/06/29 07:28:26;;;;;;;4.13;1.35;;;14.40;99.90;;;;;;5052693;28;20078;-79
2022/06/29 07:30:53;;;;;;;5.35;2.28;;;14.40;99.90;;;;;;5013997;28;20021;-79
2022/06/29 07:33:21;;;;;;;4.75;1.70;;;14.30;99.90;;;;;;5074905;28;20028;-79
2022/06/29 07:35:49;;;;;;;4.25;2.00;;;14.30;99.90;;;;;;5052627;28;20029;-80
2022/06/29 07:38:18;;;;;;;7.18;3.15;;;14.20;99.90;;;;;;5051757;28;20116;-80
2022/06/29 07:40:45;;;;;;;6.35;2.40;;;14.20;99.90;;;;;;5034815;28;20029;-81
2022/06/29 07:43:12;;;;;;;4.70;2.20;;;14.10;99.90;;;;;;5034388;28;20076;-81
2022/06/29 07:45:40;;;;;;;6.10;2.08;;;14.10;99.90;;;;;;5037212;28;20053;-79
2022/06/29 07:48:08;;;;;;;5.43;2.13;;;14.10;99.90;;;;;;5050695;28;20043;-80
2022/06/29 07:50:36;;;;;;;5.15;1.80;;;14.10;99.90;;;;;;5036524;28;20025;-79
2022/06/29 07:53:03;;;;;;;3.78;2.10;;;14.00;99.90;;;;;;5032346;28;20033;-79
2022/06/29 07:55:33;;;;;;;5.55;2.17;;;14.00;99.90;;;;;;5033432;28;20045;-79
2022/06/29 07:58:03;;;;;;;4.45;1.85;;;14.00;99.90;;;;;;5049076;28;20493;-81
2022/06/29 08:00:31;;;;;;;6.38;1.70;;;14.00;99.90;;;;;;5049735;28;20055;-78
2022/06/29 08:02:59;;;;;;;4.78;1.80;;;14.00;99.90;;;;;;5066508;28;20481;-78
2022/06/29 08:05:26;;;;;;;5.05;1.75;;;14.00;99.90;;;;;;5051144;28;20098;-79
2022/06/29 08:07:53;;;;;;;2.53;1.30;;;14.00;99.90;;;;;;5052646;28;20108;-79
2022/06/29 08:10:21;;;;;;;4.78;2.03;;;14.00;99.90;;;;;;5037873;28;20033;-80
2022/06/29 08:12:48;;;;;;;5.30;2.30;;;14.00;99.90;;;;;;5037394;28;20021;-79
2022/06/29 08:15:17;;;;;;;4.32;1.85;;;14.00;99.90;;;;;;5033141;28;20116;-80
2022/06/29 08:17:45;;;;;;;4.63;1.90;;;14.00;99.90;;;;;;5032359;28;20474;-82
2022/06/29 08:20:13;;;;;;;3.85;1.95;;;14.00;99.90;;;;;;5018208;28;20048;-80
2022/06/29 08:22:40;;;;;;;6.40;3.10;;;13.90;99.90;;;;;;5032786;28;20045;-81
2022/06/29 08:25:09;;;;;;;4.68;3.05;;;13.90;99.90;;;;;;5063029;28;20036;-81
2022/06/29 08:27:36;;;;;;;5.95;3.30;;;14.00;99.90;;;;;;5049012;28;20022;-79
2022/06/29 08:30:09;;;;;;;5.60;2.65;;;14.00;99.90;;;;;;5032836;28;20489;-82
2022/06/29 08:32:39;;;;;;;5.53;3.20;;;13.90;99.90;;;;;;5035945;28;20018;-78
2022/06/29 08:35:11;;;;;;;6.07;2.65;;;14.00;99.90;;;;;;5048394;28;20485;-82
2022/06/29 08:37:38;;;;;;;7.45;3.08;;;13.90;99.90;;;;;;5052705;28;20021;-82
2022/06/29 08:40:08;;;;;;;8.30;4.13;;;13.90;99.90;;;;;;5053720;28;20068;-82
2022/06/29 08:42:40;;;;;;;7.72;3.08;;;14.00;99.90;;;;;;5041590;28;20025;-81
2022/06/29 08:45:12;;;;;;;6.18;3.42;;;13.90;99.90;;;;;;5020477;28;20041;-81
2022/06/29 08:47:41;;;;;;;6.05;3.60;;;13.90;99.90;;;;;;5049014;28;20021;-79
2022/06/29 08:50:12;;;;;;;7.03;3.83;;;13.90;99.90;;;;;;5033198;28;20558;-80
2022/06/29 08:52:43;;;;;;;10.18;3.50;;;13.90;99.90;;;;;;5048839;28;20021;-80
2022/06/29 08:55:27;;;;;;;7.90;3.90;;;13.90;99.90;;;;;;5053389;28;20041;-80
2022/06/29 08:57:58;;;;;;;9.52;4.13;;;13.90;99.90;;;;;;5053530;28;20036;-80
2022/06/29 09:00:27;;;;;;;7.70;3.53;;;13.80;99.90;;;;;;5051266;28;20434;-79
2022/06/29 09:02:59;;;;;;;7.40;3.45;;;13.90;99.90;;;;;;5020441;28;20036;-79
2022/06/29 09:05:50;;;;;;;6.75;3.70;;;13.80;99.90;;;;;;5048990;28;20107;-79
2022/06/29 09:08:20;;;;;;;8.95;4.10;;;13.80;99.90;;;;;;5044925;28;20043;-81
2022/06/29 09:10:48;;;;;;;5.85;3.50;;;13.80;99.90;;;;;;5067578;28;20111;-81
2022/06/29 09:13:23;;;;;;;6.85;3.78;;;13.80;99.90;;;;;;5034632;28;20032;-79
2022/06/29 09:15:58;;;;;;;5.22;3.15;;;13.80;99.90;;;;;;5045094;28;20497;-80
2022/06/29 09:18:31;;;;;;;6.57;2.47;;;13.80;99.90;;;;;;5054162;28;20270;-79
2022/06/29 09:21:04;;;;;;;4.38;2.97;;;13.80;99.90;;;;;;5052470;28;20044;-80
2022/06/29 09:23:31;;;;;;;;;;;13.70;99.90;;;;;;5034933;28;20049;-80
2022/06/29 09:25:59;;;;;;;6.15;3.30;;;13.80;99.90;;;;;;5033666;28;19905;-80
2022/06/29 09:28:28;;;;;;;7.20;3.72;;;13.70;99.90;;;;;;5032432;28;20021;-80
2022/06/29 09:30:56;;;;;;;6.53;2.63;;;13.70;99.90;;;;;;5053565;28;20025;-81
2022/06/29 09:33:29;;;;;;;5.25;2.63;;;13.70;99.90;;;;;;5031791;28;20021;-79
2022/06/29 09:36:09;;;;;;;6.63;2.55;;;13.60;99.90;;;;;;5046006;28;20120;-80
2022/06/29 09:38:37;;;;;;;3.70;2.80;;;13.60;99.90;;;;;;5030696;28;20026;-80
2022/06/29 09:41:12;;;;;;;5.63;3.20;;;13.60;99.90;;;;;;5032622;28;20028;-80
2022/06/29 09:43:44;;;;;;;6.05;3.25;;;13.60;99.90;;;;;;5039553;28;20044;-79
2022/06/29 09:46:16;;;;;;;4.82;2.85;;;13.60;99.90;;;;;;5048277;28;20029;-79
2022/06/29 09:48:44;;;;;;;5.07;2.78;;;13.50;99.90;;;;;;5067841;28;20074;-80
2022/06/29 09:51:31;;;;;;;3.72;2.67;;;13.50;99.90;;;;;;5050221;28;20031;-79
2022/06/29 09:54:06;;;;;;;6.57;3.17;;;13.50;99.90;;;;;;5047994;28;20021;-78
2022/06/29 09:56:34;;;;;;;5.07;2.90;;;13.40;99.90;;;;;;5012610;28;20092;-78
2022/06/29 09:59:05;;;;;;;4.90;3.20;;;13.40;99.90;;;;;;5023809;28;20021;-80
2022/06/29 10:04:19;;;;;;;7.25;3.40;;;13.30;99.90;;;;;;5031788;28;20033;-80
2022/06/29 10:06:48;;;;;;;4.60;3.10;;;13.20;99.90;;;;;;5031556;28;20407;-79
2022/06/29 10:09:16;;;;;;;7.28;3.35;;;13.20;99.90;;;;;;5036775;28;20025;-75
2022/06/29 10:14:52;;;;;;;7.07;4.18;;;13.20;99.90;;;;;;5030873;28;20056;-80
2022/06/29 10:17:44;;;;;;;5.30;3.80;;;13.10;99.90;;;;;;5047062;28;20030;-78
2022/06/29 10:20:17;;;;;;;6.80;3.47;;;13.10;99.90;;;;;;5030386;28;20493;-79
2022/06/29 10:22:44;;;;;;;4.68;3.45;;;13.00;99.90;;;;;;5026935;28;20100;-78
2022/06/29 10:25:13;;;;;;;6.60;3.95;;;13.00;99.90;;;;;;5044717;28;20050;-72
2022/06/29 10:28:18;;;;;;;7.97;3.72;;;12.90;99.90;;;;;;5051069;28;20140;-72
2022/06/29 10:30:46;;;;;;;5.18;3.40;;;12.90;99.90;;;;;;5050632;28;20492;-71
2022/06/29 10:33:32;;;;;;;11.13;5.47;;;12.80;99.90;;;;;;5040422;28;20029;-72
2022/06/29 10:36:11;;;;;;;6.45;3.58;;;12.80;99.90;;;;;;5050219;28;20033;-71
2022/06/29 10:38:53;;;;;;;7.47;3.83;;;12.70;99.90;;;;;;5050176;28;20025;-71
2022/06/29 10:44:06;;;;;;;7.68;3.95;;;12.70;99.90;;;;;;5011393;28;20041;-72
2022/06/29 10:47:21;;;;;;;9.20;4.70;;;12.70;99.90;;;;;;5050230;28;20044;-72
2022/06/29 10:49:49;;;;;;;7.35;4.18;;;12.70;99.90;;;;;;4998104;28;20097;-69
2022/06/29 10:52:16;;;;;;;8.18;4.75;;;12.70;99.90;;;;;;5001358;28;20070;-71
2022/06/29 10:54:44;;;;;;;7.32;3.85;;;12.70;99.90;;;;;;4989170;28;20125;-72
2022/06/29 10:57:11;;;;;;;8.35;4.38;;;12.80;99.90;;;;;;4995899;28;20072;-74
2022/06/29 10:59:49;;;;;;;8.27;3.95;;;12.80;99.90;;;;;;5038045;28;20043;-74
2022/06/29 11:02:17;;;;;;;7.97;4.18;;;12.70;99.90;;;;;;5041787;28;20513;-72
2022/06/29 11:04:46;;;;;;;5.93;4.13;;;12.70;99.90;;;;;;5033938;28;20021;-70
2022/06/29 11:12:51;;;;;;;7.85;4.07;;;12.70;99.90;;;;;;5032874;28;20064;-72
2022/06/29 11:15:42;;;;;;;10.00;4.20;;;12.70;99.90;;;;;;5043144;28;20033;-73
2022/06/29 11:18:20;;;;;;;8.93;5.10;;;12.70;99.90;;;;;;5041248;28;20036;-72
2022/06/29 11:20:49;;;;;;;8.73;5.30;;;12.70;99.90;;;;;;5033206;28;20025;-74
2022/06/29 11:23:18;;;;;;;7.72;4.22;;;12.60;99.90;;;;;;5032719;28;20064;-73
2022/06/29 11:25:49;;;;;;;9.15;4.90;;;12.60;99.90;;;;;;5049475;28;20032;-73
2022/06/29 11:28:21;;;;;;;7.47;4.55;;;12.50;99.90;;;;;;5052966;28;20096;-73
2022/06/29 11:31:09;;;;;;;8.17;4.73;;;12.50;99.90;;;;;;5036435;28;20489;-70
2022/06/29 11:33:44;;;;;;;6.25;4.60;;;12.40;99.90;;;;;;5028569;28;20061;-73
2022/06/29 11:36:19;;;;;;;7.95;5.53;;;12.40;99.90;;;;;;5023420;28;20033;-72
2022/06/29 11:38:49;;;;;;;9.35;5.93;;;12.40;99.90;;;;;;5029287;28;20044;-72
2022/06/29 11:41:26;;;;;;;9.02;5.93;;;12.30;99.90;;;;;;5028852;28;20018;-71
2022/06/29 11:44:07;;;;;;;7.53;5.40;;;12.30;99.90;;;;;;5042575;28;20021;-72
2022/06/29 11:46:38;;;;;;;12.05;5.57;;;12.30;99.90;;;;;;5051519;28;20276;-72
2022/06/29 11:52:03;;;;;;;7.65;5.53;;;12.30;99.90;;;;;;5040539;28;20159;-72
2022/06/29 11:54:43;;;;;;;6.30;4.70;;;12.30;99.90;;;;;;5033823;28;20500;-71
2022/06/29 11:57:14;;;;;;;7.53;5.43;;;12.40;99.90;;;;;;5036459;28;20049;-70
2022/06/29 11:59:44;;;;;;;8.27;5.82;;;12.40;99.90;;;;;;5040006;28;20061;-75
2022/06/29 12:02:15;;;;;;;7.63;5.68;;;12.40;99.90;;;;;;5039799;28;20032;-73
2022/06/29 12:04:44;;;;;;;10.00;6.10;;;12.40;99.90;;;;;;5033143;28;20049;-74
2022/06/29 12:07:14;;;;;;;8.15;5.70;;;12.30;99.90;;;;;;5033074;28;20040;-73
2022/06/29 12:09:45;;;;;;;8.70;5.70;;;12.40;99.90;;;;;;5032232;28;20164;-74
2022/06/29 12:12:13;;;;;;;7.63;4.72;;;12.40;99.90;;;;;;5048343;28;20037;-74
2022/06/29 12:14:41;;;;;;;8.30;4.90;;;12.40;99.90;;;;;;5052184;28;20477;-71
2022/06/29 12:17:09;;;;;;;7.15;4.45;;;12.40;99.90;;;;;;5052816;28;20025;-71
2022/06/29 12:19:40;;;;;;;7.10;4.40;;;12.50;99.90;;;;;;5052463;28;20032;-72
2022/06/29 12:22:08;;;;;;;12.55;5.75;;;12.50;99.90;;;;;;5039603;28;20104;-71
2022/06/29 12:24:35;;;;;;;7.28;4.85;;;12.60;99.90;;;;;;5032661;28;20029;-72
2022/06/29 12:27:04;;;;;;;7.25;4.70;;;12.50;99.90;;;;;;5047598;28;20021;-73
2022/06/29 12:29:32;;;;;;;6.88;3.85;;;12.60;99.90;;;;;;5027815;28;20029;-72
2022/06/29 12:31:59;;;;;;;7.78;4.32;;;12.60;99.90;;;;;;5031472;28;20517;-72
2022/06/29 12:34:26;;;;;;;7.90;4.68;;;12.50;99.90;;;;;;5027518;28;20040;-72
2022/06/29 12:36:54;;;;;;;7.45;5.05;;;12.60;99.90;;;;;;5047472;28;20021;-71
2022/06/29 12:39:21;;;;;;;7.93;5.38;;;12.50;99.90;;;;;;5026548;28;20068;-72
2022/06/29 12:41:48;;;;;;;9.07;5.72;;;12.50;99.90;;;;;;5022794;28;20021;-71
2022/06/29 12:44:15;;;;;;;9.60;5.85;;;12.50;99.90;;;;;;5036495;28;20048;-72
2022/06/29 12:46:43;;;;;;;9.20;5.78;;;12.50;99.90;;;;;;5034157;28;20044;-72
2022/06/29 12:49:11;;;;;;;9.23;5.93;;;12.50;99.90;;;;;;5032320;28;20026;-72
2022/06/29 12:51:39;;;;;;;10.50;5.65;;;12.50;99.90;;;;;;5064170;28;20025;-71
2022/06/29 12:54:06;;;;;;;8.32;5.82;;;12.40;99.90;;;;;;5047878;28;20032;-71
2022/06/29 12:56:33;;;;;;;10.32;5.28;;;12.40;99.90;;;;;;5051356;28;20099;-72
2022/06/29 12:59:00;;;;;;;11.52;5.70;;;12.40;99.90;;;;;;5031244;28;20028;-71
2022/06/29 13:01:29;;;;;;;8.00;6.22;;;12.30;99.90;;;;;;5028465;28;20101;-72
2022/06/29 13:03:56;;;;;;;8.20;5.38;;;12.30;99.90;;;;;;5034848;28;20074;-72
2022/06/29 13:06:23;;;;;;;8.63;5.50;;;12.20;99.90;;;;;;5043603;28;20025;-72
2022/06/29 13:08:51;;;;;;;11.55;5.32;;;12.20;99.90;;;;;;5037804;28;20040;-73
2022/06/29 13:11:18;;;;;;;8.95;5.00;;;12.20;99.90;;;;;;5043500;28;20429;-71
2022/06/29 13:13:45;;;;;;;7.63;5.05;;;12.20;99.90;;;;;;5031790;28;20025;-72
2022/06/29 13:16:13;;;;;;;5.85;3.95;;;12.20;99.90;;;;;;5036569;28;20035;-71
2022/06/29 13:18:40;;;;;;;7.50;5.28;;;12.20;99.90;;;;;;5050224;28;20028;-72
2022/06/29 13:21:07;;;;;;;9.40;4.95;;;12.10;99.90;;;;;;5046301;28;20057;-73